Time;durP1;ratioP1;P1;durP2;ratioP2;P2;SDS_P1;SDS_P2;PMS_P1;PMS_P2;Temp;Humidity;BMP_temperature;BMP_pressure;BME280_temperature;BME280_humidity;BME280_pressure;Samples;Min_cycle;Max_cycle;Signal;HPM_P1;HPM_P2
2022/12/26 00:01:56;;;;;;;4.03;3.63;;;;;;;;;;5049956;28;20457;-76
2022/12/26 00:04:24;;;;;;;4.90;4.50;;;;;;;;;;5049751;28;20442;-74
2022/12/26 00:06:52;;;;;;;4.87;3.40;;;;;;;;;;5050168;28;20473;-74
2022/12/26 00:09:19;;;;;;;4.50;4.10;;;;;;;;;;5049931;28;20555;-74
2022/12/26 00:11:46;;;;;;;3.80;3.50;;;;;;;;;;5049758;28;20449;-74
2022/12/26 00:14:15;;;;;;;7.77;7.07;;;;;;;;;;5049123;28;20445;-74
2022/12/26 00:16:43;;;;;;;5.20;4.70;;;;;;;;;;5049870;28;20473;-74
2022/12/26 00:19:10;;;;;;;3.80;3.50;;;;;;;;;;5050098;28;20450;-74
2022/12/26 00:21:37;;;;;;;4.33;4.00;;;;;;;;;;5049766;28;20973;-74
2022/12/26 00:24:05;;;;;;;3.70;3.50;;;;;;;;;;5049468;28;20449;-74
2022/12/26 00:26:34;;;;;;;4.13;3.80;;;;;;;;;;5049701;28;20453;-74
2022/12/26 00:29:01;;;;;;;4.00;3.70;;;;;;;;;;5049743;28;20484;-75
2022/12/26 00:31:31;;;;;;;3.80;3.50;;;;;;;;;;5050029;28;20441;-74
2022/12/26 00:33:58;;;;;;;5.40;3.80;;;;;;;;;;5049239;28;20450;-74
2022/12/26 00:36:28;;;;;;;4.40;4.00;;;;;;;;;;5049703;28;20925;-75
2022/12/26 00:38:55;;;;;;;3.40;3.20;;;;;;;;;;5057167;28;20886;-74
2022/12/26 00:41:24;;;;;;;4.27;3.97;;;;;;;;;;5069434;28;20448;-74
2022/12/26 00:43:51;;;;;;;3.77;3.47;;;;;;;;;;5069474;28;20445;-74
2022/12/26 00:46:18;;;;;;;4.10;3.80;;;;;;;;;;5049099;28;20484;-74
2022/12/26 00:48:45;;;;;;;3.67;3.47;;;;;;;;;;5049444;28;20775;-74
2022/12/26 00:51:12;;;;;;;3.53;3.30;;;;;;;;;;5055933;28;20824;-75
2022/12/26 00:53:40;;;;;;;4.37;4.07;;;;;;;;;;5049431;28;20442;-75
2022/12/26 00:56:07;;;;;;;4.30;3.90;;;;;;;;;;5050336;28;20460;-75
2022/12/26 00:58:36;;;;;;;5.10;4.60;;;;;;;;;;5051003;28;20527;-74
2022/12/26 01:01:07;;;;;;;3.80;3.60;;;;;;;;;;5050470;28;20444;-74
2022/12/26 01:03:34;;;;;;;4.10;3.70;;;;;;;;;;5050225;28;20445;-74
2022/12/26 01:06:02;;;;;;;4.23;3.80;;;;;;;;;;5050598;28;20815;-75
2022/12/26 01:08:29;;;;;;;3.83;3.57;;;;;;;;;;5050611;28;20553;-74
2022/12/26 01:10:56;;;;;;;3.67;3.47;;;;;;;;;;5050826;28;20963;-74
2022/12/26 01:13:24;;;;;;;3.97;3.40;;;;;;;;;;5051863;28;20449;-74
2022/12/26 01:15:52;;;;;;;3.20;3.00;;;;;;;;;;5055638;28;20456;-75
2022/12/26 01:18:20;;;;;;;4.27;3.97;;;;;;;;;;5054945;28;20484;-74
2022/12/26 01:20:47;;;;;;;3.60;3.30;;;;;;;;;;5054638;28;20449;-75
2022/12/26 01:23:14;;;;;;;4.30;3.90;;;;;;;;;;5054518;28;20468;-73
2022/12/26 01:25:41;;;;;;;4.97;3.30;;;;;;;;;;5054884;28;20449;-73
2022/12/26 01:28:08;;;;;;;3.80;3.50;;;;;;;;;;5053175;28;21011;-75
2022/12/26 01:30:35;;;;;;;6.50;3.87;;;;;;;;;;5053507;28;20902;-74
2022/12/26 01:33:04;;;;;;;3.63;3.40;;;;;;;;;;5052825;28;21157;-76
2022/12/26 01:35:31;;;;;;;3.33;3.13;;;;;;;;;;5053540;28;20485;-75
2022/12/26 01:37:58;;;;;;;3.37;3.17;;;;;;;;;;5052961;28;20469;-74
2022/12/26 01:40:25;;;;;;;3.30;3.00;;;;;;;;;;5053507;28;20440;-74
2022/12/26 01:42:52;;;;;;;3.47;3.17;;;;;;;;;;5052560;28;20448;-75
2022/12/26 01:45:23;;;;;;;3.17;2.93;;;;;;;;;;5053996;28;20441;-74
2022/12/26 01:47:53;;;;;;;3.57;3.27;;;;;;;;;;5053915;28;20461;-74
2022/12/26 01:50:26;;;;;;;6.17;3.23;;;;;;;;;;5052900;28;20535;-74
2022/12/26 01:52:54;;;;;;;4.50;3.20;;;;;;;;;;5052376;28;20487;-74
2022/12/26 01:55:22;;;;;;;3.20;3.00;;;;;;;;;;5053012;28;20456;-74
2022/12/26 01:57:51;;;;;;;3.53;3.13;;;;;;;;;;5052360;28;20464;-75
2022/12/26 02:00:18;;;;;;;4.00;3.60;;;;;;;;;;5052461;28;20445;-75
2022/12/26 02:05:35;;;;;;;4.13;3.83;;;;;;;;;;5052336;28;20463;-74
2022/12/26 02:08:04;;;;;;;3.40;3.10;;;;;;;;;;5052432;28;20453;-75
2022/12/26 02:10:32;;;;;;;3.57;3.37;;;;;;;;;;5052371;28;20592;-74
2022/12/26 02:12:59;;;;;;;3.23;3.03;;;;;;;;;;5051495;28;20446;-74
2022/12/26 02:15:26;;;;;;;4.10;3.23;;;;;;;;;;5052389;28;20449;-75
2022/12/26 02:17:53;;;;;;;3.73;3.53;;;;;;;;;;5052546;28;20535;-74
2022/12/26 02:20:21;;;;;;;3.70;3.40;;;;;;;;;;5052541;28;20445;-75
2022/12/26 02:23:06;;;;;;;3.63;3.33;;;;;;;;;;5051610;28;20665;-75
2022/12/26 02:25:45;;;;;;;3.27;3.07;;;;;;;;;;5050760;28;20445;-74
2022/12/26 02:28:30;;;;;;;3.73;3.43;;;;;;;;;;5056011;28;20486;-74
2022/12/26 02:31:02;;;;;;;3.30;3.10;;;;;;;;;;5060977;28;20481;-74
2022/12/26 02:33:38;;;;;;;3.30;3.10;;;;;;;;;;5052097;28;20449;-74
2022/12/26 02:36:24;;;;;;;3.23;3.03;;;;;;;;;;5051710;28;20453;-75
2022/12/26 02:38:54;;;;;;;3.67;3.47;;;;;;;;;;5052037;28;20511;-74
2022/12/26 02:41:26;;;;;;;3.80;3.53;;;;;;;;;;5052435;28;20525;-74
2022/12/26 02:47:01;;;;;;;3.37;3.17;;;;;;;;;;5052659;28;20843;-75
2022/12/26 02:47:04;;;;;;;3.57;3.30;;;;;;;;;;5052328;28;20457;-74
2022/12/26 03:13:09;;;;;;;2.80;2.60;;;;;;;;;;5052978;28;21078;-74
2022/12/26 03:14:49;;;;;;;3.90;3.60;;;;;;;;;;5050960;28;20433;-75
2022/12/26 03:17:18;;;;;;;3.30;3.00;;;;;;;;;;5051369;28;20511;-75
2022/12/26 03:20:00;;;;;;;3.97;3.67;;;;;;;;;;5050801;28;20968;-74
2022/12/26 03:22:31;;;;;;;3.23;3.03;;;;;;;;;;5051196;28;20548;-75
2022/12/26 03:27:45;;;;;;;3.60;3.40;;;;;;;;;;5050786;28;20931;-75
2022/12/26 03:32:59;;;;;;;4.43;4.13;;;;;;;;;;5032367;28;20948;-74
2022/12/26 03:35:29;;;;;;;4.60;4.20;;;;;;;;;;5050800;28;20449;-74
2022/12/26 03:37:57;;;;;;;3.70;3.50;;;;;;;;;;5050227;28;20461;-75
2022/12/26 04:19:59;;;;;;;4.07;3.70;;;;;;;;;;5030458;28;20461;-75
2022/12/26 04:44:43;;;;;;;3.10;2.90;;;;;;;;;;5029252;28;20430;-75
2022/12/26 04:47:10;;;;;;;3.73;3.43;;;;;;;;;;5029309;28;20470;-74
2022/12/26 04:52:53;;;;;;;3.03;2.83;;;;;;;;;;5029591;28;20789;-75
2022/12/26 04:55:15;;;;;;;3.17;2.97;;;;;;;;;;5041826;28;20803;-74
2022/12/26 04:57:43;;;;;;;4.27;3.60;;;;;;;;;;5049758;28;20469;-73
2022/12/26 05:00:11;;;;;;;3.47;3.17;;;;;;;;;;5049628;28;20450;-74
2022/12/26 05:10:55;;;;;;;3.97;3.67;;;;;;;;;;5050421;28;20479;-75
2022/12/26 05:13:23;;;;;;;3.33;3.03;;;;;;;;;;5048641;28;20445;-73
2022/12/26 05:29:34;;;;;;;3.43;3.13;;;;;;;;;;5049543;28;20500;-74
2022/12/26 05:32:01;;;;;;;3.50;3.20;;;;;;;;;;5049609;28;20480;-74
2022/12/26 05:34:27;;;;;;;3.57;3.20;;;;;;;;;;5048244;28;20980;-75
2022/12/26 05:36:55;;;;;;;3.20;3.00;;;;;;;;;;5050215;28;20552;-74
2022/12/26 05:39:22;;;;;;;3.37;3.17;;;;;;;;;;5050033;28;20470;-74
2022/12/26 05:41:49;;;;;;;3.27;3.07;;;;;;;;;;5050004;28;20449;-74
2022/12/26 05:44:16;;;;;;;3.63;3.33;;;;;;;;;;5050000;28;20780;-74
2022/12/26 05:46:45;;;;;;;2.60;2.50;;;;;;;;;;5047718;28;20800;-74
2022/12/26 05:49:12;;;;;;;3.30;3.10;;;;;;;;;;5041465;28;20445;-74
2022/12/26 05:51:39;;;;;;;3.00;2.80;;;;;;;;;;5050364;28;20519;-75
2022/12/26 05:54:06;;;;;;;3.27;3.00;;;;;;;;;;5049233;28;20437;-75
2022/12/26 05:56:34;;;;;;;3.70;2.90;;;;;;;;;;5049521;28;20444;-74
2022/12/26 05:59:01;;;;;;;3.60;3.30;;;;;;;;;;5049212;28;20967;-74
2022/12/26 06:01:29;;;;;;;3.17;2.97;;;;;;;;;;5053057;28;20443;-74
2022/12/26 06:03:58;;;;;;;3.30;3.10;;;;;;;;;;5052085;28;20437;-75
2022/12/26 06:06:26;;;;;;;4.10;3.73;;;;;;;;;;5052611;28;20449;-74
2022/12/26 06:08:54;;;;;;;4.83;3.33;;;;;;;;;;5052546;28;20503;-74
2022/12/26 06:11:21;;;;;;;3.33;3.13;;;;;;;;;;5052384;28;20538;-74
2022/12/26 06:13:48;;;;;;;6.33;4.03;;;;;;;;;;5050555;28;20445;-76
2022/12/26 06:16:16;;;;;;;2.77;2.57;;;;;;;;;;5042267;28;20513;-75
2022/12/26 06:18:43;;;;;;;3.37;3.07;;;;;;;;;;5052898;28;20433;-75
2022/12/26 06:21:12;;;;;;;3.40;3.10;;;;;;;;;;5053003;28;20847;-74
2022/12/26 06:23:40;;;;;;;3.60;3.30;;;;;;;;;;5052519;28;20572;-75
2022/12/26 06:26:09;;;;;;;3.10;2.90;;;;;;;;;;5052446;28;20967;-74
2022/12/26 06:28:36;;;;;;;3.03;2.83;;;;;;;;;;5052700;28;20972;-74
2022/12/26 06:31:04;;;;;;;3.40;3.00;;;;;;;;;;5052404;28;20484;-73
2022/12/26 06:33:31;;;;;;;3.37;3.07;;;;;;;;;;5051568;28;20967;-74
2022/12/26 06:36:02;;;;;;;3.63;3.33;;;;;;;;;;5052041;28;20835;-75
2022/12/26 06:38:30;;;;;;;3.80;3.50;;;;;;;;;;5052232;28;20466;-75
2022/12/26 06:40:57;;;;;;;4.13;3.80;;;;;;;;;;5051840;28;20863;-75
2022/12/26 06:43:24;;;;;;;3.43;3.13;;;;;;;;;;5051498;28;20457;-75
2022/12/26 06:45:55;;;;;;;3.70;3.50;;;;;;;;;;5051707;28;20450;-74
2022/12/26 06:48:22;;;;;;;3.23;2.93;;;;;;;;;;5051824;28;20508;-76
2022/12/26 06:50:49;;;;;;;3.47;3.17;;;;;;;;;;5051689;28;20512;-74
2022/12/26 06:53:16;;;;;;;3.80;3.47;;;;;;;;;;5051059;28;20438;-74
2022/12/26 06:55:44;;;;;;;2.80;2.60;;;;;;;;;;5052330;28;20972;-74
2022/12/26 06:58:11;;;;;;;3.30;3.00;;;;;;;;;;5051906;28;20465;-75
2022/12/26 07:00:38;;;;;;;3.13;2.57;;;;;;;;;;5052091;28;20677;-74
2022/12/26 07:03:05;;;;;;;3.33;3.13;;;;;;;;;;5051811;28;20507;-74
2022/12/26 07:05:32;;;;;;;3.10;2.70;;;;;;;;;;5051962;28;20941;-74
2022/12/26 07:07:59;;;;;;;3.20;2.93;;;;;;;;;;5051967;28;20485;-74
2022/12/26 07:10:26;;;;;;;3.40;3.10;;;;;;;;;;5051984;28;20984;-74
2022/12/26 07:12:55;;;;;;;4.23;3.07;;;;;;;;;;5050667;28;20460;-74
2022/12/26 07:15:22;;;;;;;3.90;2.83;;;;;;;;;;5037316;28;20534;-75
2022/12/26 07:17:49;;;;;;;3.73;3.43;;;;;;;;;;5032035;28;20466;-74
2022/12/26 07:20:16;;;;;;;3.23;3.03;;;;;;;;;;5032173;28;20443;-74
2022/12/26 07:22:43;;;;;;;4.00;3.20;;;;;;;;;;5031320;28;20446;-75
2022/12/26 07:25:10;;;;;;;3.10;2.90;;;;;;;;;;5032014;28;20454;-74
2022/12/26 07:27:37;;;;;;;4.83;2.97;;;;;;;;;;5031729;28;20478;-75
2022/12/26 07:30:06;;;;;;;3.20;2.90;;;;;;;;;;5031576;28;20982;-74
2022/12/26 07:32:33;;;;;;;3.10;2.90;;;;;;;;;;5030438;28;20496;-73
2022/12/26 07:35:00;;;;;;;3.77;2.90;;;;;;;;;;5031141;28;20445;-75
2022/12/26 07:37:27;;;;;;;3.10;2.80;;;;;;;;;;5031677;28;20762;-74
2022/12/26 07:39:54;;;;;;;3.30;3.10;;;;;;;;;;5032360;28;20450;-74
2022/12/26 07:42:21;;;;;;;3.33;3.03;;;;;;;;;;5031124;28;20457;-75
2022/12/26 07:44:48;;;;;;;3.10;2.70;;;;;;;;;;5030781;28;20458;-75
2022/12/26 07:47:16;;;;;;;3.33;3.03;;;;;;;;;;5031267;28;20466;-75
2022/12/26 07:49:43;;;;;;;4.03;2.97;;;;;;;;;;5031291;28;20454;-74
2022/12/26 07:52:10;;;;;;;2.90;2.70;;;;;;;;;;5031145;28;20490;-75
2022/12/26 07:54:37;;;;;;;3.13;2.90;;;;;;;;;;5030244;28;20446;-74
2022/12/26 07:57:04;;;;;;;3.70;3.40;;;;;;;;;;5030731;28;20462;-75
2022/12/26 07:59:32;;;;;;;3.10;2.90;;;;;;;;;;5030538;28;20451;-76
2022/12/26 08:02:01;;;;;;;3.53;3.23;;;;;;;;;;5030900;28;20466;-74
2022/12/26 08:04:29;;;;;;;3.13;2.90;;;;;;;;;;5030366;28;20478;-75
2022/12/26 08:06:56;;;;;;;2.93;2.73;;;;;;;;;;5056125;28;20927;-75
2022/12/26 08:09:24;;;;;;;3.57;3.37;;;;;;;;;;5070827;28;20445;-75
2022/12/26 08:11:51;;;;;;;3.40;3.20;;;;;;;;;;5070881;28;20491;-75
2022/12/26 08:14:18;;;;;;;3.40;3.20;;;;;;;;;;5065737;28;20521;-75
2022/12/26 08:16:45;;;;;;;4.10;3.20;;;;;;;;;;5052804;28;20552;-75
2022/12/26 08:19:12;;;;;;;4.30;3.00;;;;;;;;;;5051140;28;20465;-74
2022/12/26 08:21:40;;;;;;;3.67;3.47;;;;;;;;;;5050316;28;20454;-75
2022/12/26 08:24:08;;;;;;;3.53;3.20;;;;;;;;;;5048646;28;20454;-76
2022/12/26 08:26:35;;;;;;;4.10;3.70;;;;;;;;;;5050401;28;20457;-75
2022/12/26 08:29:02;;;;;;;3.63;3.43;;;;;;;;;;5050850;28;20476;-74
2022/12/26 08:31:29;;;;;;;3.27;3.07;;;;;;;;;;5051015;28;20576;-74
2022/12/26 08:33:57;;;;;;;3.67;3.37;;;;;;;;;;5049977;28;20446;-76
2022/12/26 08:36:24;;;;;;;3.63;3.33;;;;;;;;;;5051311;28;20464;-74
2022/12/26 08:38:52;;;;;;;3.97;3.57;;;;;;;;;;5050987;28;20441;-75
2022/12/26 08:41:19;;;;;;;3.97;3.67;;;;;;;;;;5049872;28;20441;-74
2022/12/26 08:43:50;;;;;;;3.27;2.97;;;;;;;;;;5049863;28;20460;-75
2022/12/26 08:46:17;;;;;;;4.00;3.20;;;;;;;;;;5050217;28;20532;-75
2022/12/26 08:48:45;;;;;;;4.60;4.20;;;;;;;;;;5049922;28;20446;-75
2022/12/26 08:51:13;;;;;;;3.43;3.13;;;;;;;;;;5050423;28;20485;-75
2022/12/26 08:53:40;;;;;;;14.53;11.03;;;;;;;;;;5052661;28;20457;-77
2022/12/26 08:56:10;;;;;;;18.47;13.03;;;;;;;;;;5054673;28;20452;-74
2022/12/26 08:58:38;;;;;;;4.60;4.20;;;;;;;;;;5052941;28;20819;-75
2022/12/26 09:01:08;;;;;;;4.50;4.20;;;;;;;;;;5053004;28;20438;-75
2022/12/26 09:03:35;;;;;;;3.30;3.10;;;;;;;;;;5051735;28;20445;-75
2022/12/26 09:06:02;;;;;;;3.60;3.40;;;;;;;;;;5050046;28;20441;-75
2022/12/26 09:08:29;;;;;;;4.17;3.53;;;;;;;;;;5049413;28;20469;-75
2022/12/26 09:10:57;;;;;;;3.73;3.43;;;;;;;;;;5049494;28;20482;-75
2022/12/26 09:13:25;;;;;;;3.63;3.33;;;;;;;;;;5048820;28;20453;-75
2022/12/26 09:15:52;;;;;;;3.57;3.27;;;;;;;;;;5031437;28;20457;-75
2022/12/26 09:18:19;;;;;;;3.20;3.00;;;;;;;;;;5029470;28;20868;-74
2022/12/26 09:20:46;;;;;;;3.90;3.60;;;;;;;;;;5029448;28;20439;-75
2022/12/26 09:23:14;;;;;;;5.23;3.60;;;;;;;;;;5029963;28;20446;-76
2022/12/26 09:25:41;;;;;;;5.73;3.70;;;;;;;;;;5028545;28;20446;-74
2022/12/26 09:28:08;;;;;;;4.27;3.97;;;;;;;;;;5029526;28;20481;-75
2022/12/26 09:30:37;;;;;;;3.70;3.50;;;;;;;;;;5029729;28;20485;-75
2022/12/26 09:33:07;;;;;;;3.80;3.50;;;;;;;;;;5029063;28;20806;-75
2022/12/26 09:35:34;;;;;;;6.40;5.07;;;;;;;;;;5033188;28;20942;-74
2022/12/26 09:38:01;;;;;;;3.90;3.60;;;;;;;;;;5033786;28;20530;-74
2022/12/26 09:40:30;;;;;;;6.83;6.27;;;;;;;;;;5033186;28;20450;-75
2022/12/26 09:43:02;;;;;;;4.00;3.70;;;;;;;;;;5032687;28;20447;-75
2022/12/26 09:45:37;;;;;;;4.03;3.70;;;;;;;;;;5033503;28;20454;-76
2022/12/26 09:48:12;;;;;;;4.33;4.03;;;;;;;;;;5033006;28;20476;-74
2022/12/26 09:50:40;;;;;;;5.07;4.60;;;;;;;;;;5033284;28;20804;-75
2022/12/26 09:53:08;;;;;;;6.07;4.30;;;;;;;;;;5032939;28;20832;-74
2022/12/26 09:55:38;;;;;;;5.10;4.67;;;;;;;;;;5032901;28;20477;-75
2022/12/26 09:58:09;;;;;;;6.10;5.17;;;;;;;;;;5033307;28;20462;-75
2022/12/26 10:00:39;;;;;;;5.57;4.97;;;;;;;;;;5033013;28;20450;-74
2022/12/26 10:03:09;;;;;;;5.67;5.17;;;;;;;;;;5032601;28;20481;-75
2022/12/26 10:05:41;;;;;;;5.73;5.23;;;;;;;;;;5032893;28;20501;-76
2022/12/26 10:08:13;;;;;;;6.87;5.67;;;;;;;;;;5032961;28;20489;-74
2022/12/26 10:10:45;;;;;;;5.80;5.20;;;;;;;;;;5033296;28;20442;-75
2022/12/26 10:13:15;;;;;;;5.47;4.90;;;;;;;;;;5034684;28;20460;-74
2022/12/26 10:15:43;;;;;;;5.70;5.20;;;;;;;;;;5050982;28;20468;-74
2022/12/26 10:18:23;;;;;;;5.63;5.13;;;;;;;;;;5052620;28;20461;-74
2022/12/26 10:21:00;;;;;;;5.63;5.23;;;;;;;;;;5052617;28;20873;-75
2022/12/26 10:23:38;;;;;;;5.20;4.73;;;;;;;;;;5051854;28;20452;-75
2022/12/26 10:26:10;;;;;;;5.40;5.00;;;;;;;;;;5052027;28;20953;-75
2022/12/26 10:28:39;;;;;;;4.40;4.00;;;;;;;;;;5052174;28;20505;-76
2022/12/26 10:31:07;;;;;;;4.50;4.10;;;;;;;;;;5051506;28;20545;-75
2022/12/26 10:33:39;;;;;;;5.47;4.00;;;;;;;;;;5051670;28;20515;-76
2022/12/26 10:36:06;;;;;;;4.20;3.80;;;;;;;;;;5052209;28;20458;-75
2022/12/26 10:38:36;;;;;;;4.90;4.50;;;;;;;;;;5052374;28;20484;-75
2022/12/26 10:41:05;;;;;;;5.90;5.47;;;;;;;;;;5052191;28;20831;-75
2022/12/26 10:43:33;;;;;;;4.80;4.20;;;;;;;;;;5053169;28;20445;-75
2022/12/26 10:46:18;;;;;;;5.30;4.90;;;;;;;;;;5051414;28;20449;-75
2022/12/26 10:48:47;;;;;;;4.57;4.20;;;;;;;;;;5052156;28;20437;-75
2022/12/26 10:51:14;;;;;;;5.23;4.73;;;;;;;;;;5054241;28;20509;-74
2022/12/26 10:53:43;;;;;;;5.00;4.60;;;;;;;;;;5051731;28;20842;-73
2022/12/26 10:56:10;;;;;;;4.67;4.27;;;;;;;;;;5051079;28;21259;-75
2022/12/26 10:58:38;;;;;;;4.67;4.27;;;;;;;;;;5051695;28;20461;-75
2022/12/26 11:01:20;;;;;;;3.90;3.60;;;;;;;;;;5051615;28;20457;-75
2022/12/26 11:03:54;;;;;;;3.90;3.60;;;;;;;;;;5050970;28;20441;-76
2022/12/26 11:06:22;;;;;;;4.70;4.30;;;;;;;;;;5051780;28;20452;-75
2022/12/26 11:08:50;;;;;;;2.97;2.83;;;;;;;;;;5053345;28;20924;-75
2022/12/26 11:11:21;;;;;;;3.60;3.30;;;;;;;;;;5052018;28;20476;-76
2022/12/26 11:13:50;;;;;;;4.50;3.77;;;;;;;;;;5049691;28;20446;-75
2022/12/26 11:16:24;;;;;;;6.27;5.67;;;;;;;;;;5031546;28;20537;-75
2022/12/26 11:18:52;;;;;;;4.97;4.50;;;;;;;;;;5031504;28;20537;-75
2022/12/26 11:21:23;;;;;;;28.43;25.57;;;;;;;;;;5032760;28;20443;-75
2022/12/26 11:23:51;;;;;;;12.40;11.10;;;;;;;;;;5032806;28;20450;-74
2022/12/26 11:26:20;;;;;;;8.47;7.67;;;;;;;;;;5031425;28;21028;-75
2022/12/26 11:28:47;;;;;;;4.67;4.27;;;;;;;;;;5034463;28;20447;-75
2022/12/26 11:31:22;;;;;;;4.93;4.40;;;;;;;;;;5032939;28;20458;-75
2022/12/26 11:33:50;;;;;;;3.47;2.90;;;;;;;;;;5030741;28;20594;-76
2022/12/26 11:36:21;;;;;;;4.00;3.70;;;;;;;;;;5031286;28;20865;-75
2022/12/26 11:38:50;;;;;;;3.50;3.20;;;;;;;;;;5031356;28;20447;-76
2022/12/26 11:41:31;;;;;;;3.80;2.77;;;;;;;;;;5031334;28;20450;-75
2022/12/26 11:44:00;;;;;;;2.17;2.07;;;;;;;;;;5030282;28;20449;-75
2022/12/26 11:46:36;;;;;;;2.00;1.90;;;;;;;;;;5031030;28;20524;-74
2022/12/26 11:49:04;;;;;;;1.83;1.67;;;;;;;;;;5031078;28;20536;-75
2022/12/26 11:51:37;;;;;;;1.77;1.40;;;;;;;;;;5030826;28;20489;-75
2022/12/26 11:54:21;;;;;;;1.33;1.27;;;;;;;;;;5030356;28;20513;-75
2022/12/26 11:56:48;;;;;;;1.53;1.40;;;;;;;;;;5030568;28;20465;-75
2022/12/26 11:59:18;;;;;;;1.80;1.30;;;;;;;;;;5030815;28;20455;-74
2022/12/26 12:01:45;;;;;;;1.00;1.00;;;;;;;;;;5030919;28;20439;-75
2022/12/26 12:04:12;;;;;;;1.33;1.20;;;;;;;;;;5030049;28;20450;-76
2022/12/26 12:06:48;;;;;;;1.90;1.47;;;;;;;;;;5030207;28;20467;-76
2022/12/26 12:09:19;;;;;;;1.17;1.07;;;;;;;;;;5030581;28;20469;-76
2022/12/26 12:11:48;;;;;;;1.60;1.50;;;;;;;;;;5030424;28;20478;-76
2022/12/26 12:14:27;;;;;;;1.80;1.50;;;;;;;;;;5034542;28;20449;-75
2022/12/26 12:17:01;;;;;;;1.60;1.50;;;;;;;;;;5050184;28;20476;-75
2022/12/26 12:19:36;;;;;;;2.33;1.43;;;;;;;;;;5049901;28;20444;-77
2022/12/26 12:22:10;;;;;;;1.40;1.40;;;;;;;;;;5049963;28;20441;-76
2022/12/26 12:24:43;;;;;;;2.70;1.73;;;;;;;;;;5049419;28;20438;-75
2022/12/26 12:27:12;;;;;;;1.77;1.67;;;;;;;;;;5049777;28;20487;-75
2022/12/26 12:29:48;;;;;;;1.53;1.43;;;;;;;;;;5049625;28;20449;-76
2022/12/26 12:32:18;;;;;;;1.37;1.30;;;;;;;;;;5050081;28;20485;-75
2022/12/26 12:35:03;;;;;;;1.77;1.67;;;;;;;;;;5049674;28;20446;-76
2022/12/26 12:37:35;;;;;;;1.30;1.20;;;;;;;;;;5049608;28;20532;-76
2022/12/26 12:40:08;;;;;;;1.20;1.20;;;;;;;;;;5049673;28;20450;-75
2022/12/26 12:42:42;;;;;;;1.03;1.03;;;;;;;;;;5049006;28;20437;-76
2022/12/26 12:45:25;;;;;;;2.90;1.50;;;;;;;;;;5049843;28;20433;-76
2022/12/26 12:48:00;;;;;;;1.43;1.33;;;;;;;;;;5049776;28;20549;-76
2022/12/26 12:50:30;;;;;;;1.60;1.50;;;;;;;;;;5049555;28;20432;-76
2022/12/26 12:53:04;;;;;;;1.50;1.40;;;;;;;;;;5048971;28;20488;-75
2022/12/26 12:55:36;;;;;;;1.37;1.37;;;;;;;;;;5049666;28;20943;-75
2022/12/26 12:58:08;;;;;;;1.50;1.40;;;;;;;;;;5049307;28;20469;-75
2022/12/26 13:00:38;;;;;;;1.20;1.20;;;;;;;;;;5049448;28;20526;-75
2022/12/26 13:03:10;;;;;;;1.50;1.40;;;;;;;;;;5049153;28;20773;-75
2022/12/26 13:05:42;;;;;;;1.20;1.20;;;;;;;;;;5049483;28;20480;-74
2022/12/26 13:08:15;;;;;;;0.93;0.93;;;;;;;;;;5049722;28;20542;-75
2022/12/26 13:10:46;;;;;;;1.17;1.10;;;;;;;;;;5052946;28;20448;-76
2022/12/26 13:13:17;;;;;;;0.97;0.97;;;;;;;;;;5052757;28;20481;-76
2022/12/26 13:15:47;;;;;;;1.97;1.40;;;;;;;;;;5036262;28;20458;-76
2022/12/26 13:18:16;;;;;;;1.13;1.10;;;;;;;;;;5033812;28;20466;-75
2022/12/26 13:20:47;;;;;;;2.03;1.67;;;;;;;;;;5033579;28;20446;-75
2022/12/26 13:26:07;;;;;;;1.20;1.20;;;;;;;;;;5012011;28;20533;-75
2022/12/26 13:28:36;;;;;;;1.47;1.47;;;;;;;;;;5033274;28;21000;-74
2022/12/26 13:31:03;;;;;;;1.60;1.50;;;;;;;;;;5033100;28;20453;-76
2022/12/26 13:33:31;;;;;;;1.07;1.07;;;;;;;;;;5032742;28;20488;-75
2022/12/26 13:35:59;;;;;;;1.00;1.00;;;;;;;;;;5033410;28;20442;-76
2022/12/26 13:38:47;;;;;;;1.10;1.10;;;;;;;;;;5033201;28;20528;-75
2022/12/26 13:44:02;;;;;;;1.10;1.10;;;;;;;;;;5032847;28;20541;-75
2022/12/26 13:46:36;;;;;;;1.00;1.00;;;;;;;;;;5032963;28;20449;-76
2022/12/26 13:49:03;;;;;;;1.30;1.30;;;;;;;;;;5032857;28;20454;-76
2022/12/26 13:51:44;;;;;;;1.10;1.10;;;;;;;;;;5033193;28;20450;-76
2022/12/26 13:54:14;;;;;;;2.47;1.40;;;;;;;;;;5032470;28;20442;-75
2022/12/26 13:57:07;;;;;;;1.37;1.27;;;;;;;;;;5033026;28;20466;-77
2022/12/26 13:59:37;;;;;;;0.80;0.80;;;;;;;;;;5033608;28;20454;-74
2022/12/26 14:02:14;;;;;;;1.43;1.33;;;;;;;;;;5034154;28;20926;-74
2022/12/26 14:04:47;;;;;;;1.10;1.10;;;;;;;;;;5032397;28;20512;-75
2022/12/26 14:07:21;;;;;;;1.37;1.37;;;;;;;;;;5032993;28;20462;-75
2022/12/26 14:10:02;;;;;;;1.97;1.50;;;;;;;;;;5032837;28;20530;-75
2022/12/26 14:12:35;;;;;;;2.00;1.90;;;;;;;;;;5032399;28;20896;-75
2022/12/26 14:15:21;;;;;;;1.30;1.30;;;;;;;;;;5045556;28;20433;-75
2022/12/26 14:17:53;;;;;;;1.57;1.47;;;;;;;;;;5054005;28;21027;-75
2022/12/26 14:20:31;;;;;;;4.03;3.63;;;;;;;;;;5055272;28;20457;-75
2022/12/26 14:23:04;;;;;;;1.87;1.77;;;;;;;;;;5054297;28;20442;-75
2022/12/26 14:25:36;;;;;;;1.87;1.77;;;;;;;;;;5052328;28;20521;-75
2022/12/26 14:28:10;;;;;;;3.37;3.10;;;;;;;;;;5052620;28;20473;-76
2022/12/26 14:30:41;;;;;;;1.60;1.50;;;;;;;;;;5053209;28;20458;-75
2022/12/26 14:33:22;;;;;;;1.60;1.43;;;;;;;;;;5051963;28;20515;-75
2022/12/26 14:35:54;;;;;;;1.67;1.57;;;;;;;;;;5052332;28;20917;-75
2022/12/26 14:38:25;;;;;;;1.30;1.30;;;;;;;;;;5052387;28;20976;-75
2022/12/26 14:41:01;;;;;;;2.10;1.87;;;;;;;;;;5052697;28;20453;-76
2022/12/26 14:43:32;;;;;;;1.90;1.80;;;;;;;;;;5051623;28;20433;-75
2022/12/26 14:45:59;;;;;;;2.07;1.97;;;;;;;;;;5052296;28;20961;-75
2022/12/26 14:48:44;;;;;;;1.70;1.60;;;;;;;;;;5052177;28;20461;-75
2022/12/26 14:51:30;;;;;;;2.40;1.50;;;;;;;;;;5052021;28;20458;-76
2022/12/26 14:54:12;;;;;;;1.70;1.60;;;;;;;;;;5051246;28;20487;-74
2022/12/26 14:56:40;;;;;;;3.13;1.60;;;;;;;;;;5049827;28;20468;-74
2022/12/26 14:59:25;;;;;;;1.70;1.60;;;;;;;;;;5051728;28;20441;-75
2022/12/26 15:02:01;;;;;;;1.60;1.50;;;;;;;;;;5051305;28;20443;-75
2022/12/26 15:04:46;;;;;;;1.83;1.67;;;;;;;;;;5051324;28;20441;-75
2022/12/26 15:07:37;;;;;;;2.00;1.90;;;;;;;;;;5051308;28;20549;-74
2022/12/26 15:10:13;;;;;;;2.00;1.90;;;;;;;;;;5051530;28;20437;-74
2022/12/26 15:12:53;;;;;;;2.37;2.10;;;;;;;;;;5051068;28;20562;-75
2022/12/26 15:15:27;;;;;;;2.23;2.13;;;;;;;;;;5037857;28;20453;-76
2022/12/26 15:18:04;;;;;;;11.97;10.80;;;;;;;;;;5031728;28;20466;-75
2022/12/26 15:20:44;;;;;;;2.00;1.90;;;;;;;;;;5031261;28;20465;-75
2022/12/26 15:23:28;;;;;;;1.87;1.77;;;;;;;;;;5031201;28;20457;-75
2022/12/26 15:26:10;;;;;;;1.97;1.77;;;;;;;;;;5024026;28;20856;-75
2022/12/26 15:28:55;;;;;;;1.77;1.50;;;;;;;;;;5029494;28;20562;-75
2022/12/26 15:31:27;;;;;;;2.10;2.00;;;;;;;;;;5031116;28;20442;-75
2022/12/26 15:33:59;;;;;;;1.97;1.87;;;;;;;;;;5029875;28;20505;-76
2022/12/26 15:36:30;;;;;;;1.67;1.60;;;;;;;;;;5030968;28;20453;-75
2022/12/26 15:38:59;;;;;;;1.27;1.17;;;;;;;;;;5031134;28;20439;-75
2022/12/26 15:41:31;;;;;;;1.73;1.70;;;;;;;;;;5030406;28;20866;-74
2022/12/26 15:44:04;;;;;;;1.87;1.77;;;;;;;;;;5030205;28;20434;-75
2022/12/26 15:46:33;;;;;;;1.93;1.83;;;;;;;;;;5031117;28;20859;-75
2022/12/26 15:49:19;;;;;;;1.63;1.50;;;;;;;;;;5030663;28;20917;-76
2022/12/26 15:51:49;;;;;;;1.70;1.60;;;;;;;;;;5030687;28;20830;-74
2022/12/26 15:54:23;;;;;;;1.60;1.50;;;;;;;;;;5029972;28;20504;-75
2022/12/26 15:56:58;;;;;;;1.30;1.30;;;;;;;;;;5030787;28;20832;-74
2022/12/26 15:59:42;;;;;;;1.40;1.40;;;;;;;;;;5030573;28;20503;-75
2022/12/26 16:02:12;;;;;;;1.93;1.80;;;;;;;;;;5030407;28;20442;-75
2022/12/26 16:04:41;;;;;;;3.83;2.47;;;;;;;;;;5030366;28;20450;-75
2022/12/26 16:07:09;;;;;;;1.80;1.70;;;;;;;;;;5030563;28;20466;-75
2022/12/26 16:09:42;;;;;;;1.47;1.37;;;;;;;;;;5030499;28;20455;-76
2022/12/26 16:12:20;;;;;;;2.87;2.33;;;;;;;;;;5030488;28;20529;-76
2022/12/26 16:14:49;;;;;;;2.20;2.00;;;;;;;;;;5038404;28;20519;-76
2022/12/26 16:17:21;;;;;;;1.40;1.40;;;;;;;;;;5049963;28;20993;-76
2022/12/26 16:19:49;;;;;;;1.87;1.70;;;;;;;;;;5050095;28;20945;-74
2022/12/26 16:25:02;;;;;;;1.83;1.73;;;;;;;;;;5050114;28;21033;-75
2022/12/26 16:27:30;;;;;;;1.90;1.80;;;;;;;;;;5049897;28;20482;-76
2022/12/26 16:29:59;;;;;;;1.90;1.80;;;;;;;;;;5050185;28;20543;-75
2022/12/26 16:32:29;;;;;;;3.13;2.20;;;;;;;;;;5049690;28;20852;-75
2022/12/26 16:34:57;;;;;;;4.20;2.30;;;;;;;;;;5049655;28;20771;-75
2022/12/26 16:37:25;;;;;;;3.70;3.30;;;;;;;;;;5050014;28;20477;-75
2022/12/26 16:40:05;;;;;;;3.80;2.60;;;;;;;;;;5049849;28;20914;-74
2022/12/26 16:42:33;;;;;;;1.87;1.77;;;;;;;;;;5049455;28;20983;-73
2022/12/26 16:45:02;;;;;;;1.50;1.50;;;;;;;;;;5048812;28;20446;-74
2022/12/26 16:47:30;;;;;;;1.77;1.70;;;;;;;;;;5052376;28;20473;-74
2022/12/26 16:49:57;;;;;;;2.10;2.00;;;;;;;;;;5069746;28;20445;-74
2022/12/26 16:52:32;;;;;;;1.37;1.37;;;;;;;;;;5070908;28;20445;-74
2022/12/26 16:55:19;;;;;;;1.73;1.50;;;;;;;;;;5071671;28;20591;-75
2022/12/26 16:57:46;;;;;;;1.77;1.67;;;;;;;;;;5069804;28;20472;-75
2022/12/26 17:00:18;;;;;;;2.30;2.03;;;;;;;;;;5069611;28;20455;-75
2022/12/26 17:02:46;;;;;;;1.40;1.30;;;;;;;;;;5068759;28;20452;-75
2022/12/26 17:05:18;;;;;;;2.07;1.90;;;;;;;;;;5069843;28;20452;-74
2022/12/26 17:07:46;;;;;;;1.80;1.70;;;;;;;;;;5071115;28;20485;-75
2022/12/26 17:10:18;;;;;;;1.87;1.77;;;;;;;;;;5070318;28;20860;-74